createdAt,value
2017-06-16T00:00:02.887Z,100760.58
2017-06-16T00:02:29.233Z,100761.11
2017-06-16T00:04:55.698Z,100764.22
2017-06-16T00:07:22.024Z,100763.27
2017-06-16T00:09:48.375Z,100765.66
2017-06-16T00:12:14.690Z,100769.36
2017-06-16T00:14:41.028Z,100767.67
2017-06-16T00:17:07.359Z,100770.69
2017-06-16T00:19:33.816Z,100772.41
2017-06-16T00:22:00.139Z,100774.41
2017-06-16T00:24:26.487Z,100767.03
2017-06-16T00:26:52.847Z,100772.56
2017-06-16T00:29:19.191Z,100769.16
2017-06-16T00:31:45.516Z,100780.88
2017-06-16T00:34:11.857Z,100778.63
2017-06-16T00:36:38.166Z,100782.39
2017-06-16T00:39:04.506Z,100783.42
2017-06-16T00:41:33.234Z,100790.41
2017-06-16T00:44:04.282Z,100787.62
2017-06-16T00:46:34.382Z,100786.55
2017-06-16T00:49:04.210Z,100799.58
2017-06-16T00:51:33.085Z,100798.86
2017-06-16T00:54:02.917Z,100805.14
2017-06-16T00:56:34.246Z,100804.95
2017-06-16T00:59:04.205Z,100813.15
2017-06-16T01:01:30.695Z,100804.13
2017-06-16T01:03:57.043Z,100811.09
2017-06-16T01:06:23.356Z,100810.31
2017-06-16T01:08:49.685Z,100820.16
2017-06-16T01:11:16.017Z,100818.02
2017-06-16T01:13:42.358Z,100817.32
2017-06-16T01:16:08.665Z,100823.14
2017-06-16T01:18:34.983Z,100822.72
2017-06-16T01:21:01.305Z,100817.84
2017-06-16T01:23:27.606Z,100827.95
2017-06-16T01:25:53.933Z,100830.50
2017-06-16T01:28:20.258Z,100822.52
2017-06-16T01:30:46.633Z,100834.87
2017-06-16T01:33:12.997Z,100838.84
2017-06-16T01:35:39.326Z,100840.67
2017-06-16T01:38:05.683Z,100840.70
2017-06-16T01:40:32.047Z,100840.10
2017-06-16T01:42:58.431Z,100837.73
2017-06-16T01:45:24.874Z,100850.11
2017-06-16T01:47:51.236Z,100857.23
2017-06-16T01:50:17.573Z,100854.88
2017-06-16T01:52:43.922Z,100848.91
2017-06-16T01:55:10.226Z,100854.02
2017-06-16T01:57:36.558Z,100849.88
2017-06-16T02:00:02.944Z,100855.97
2017-06-16T02:02:29.310Z,100856.97
2017-06-16T02:04:55.656Z,100864.48
2017-06-16T02:07:21.969Z,100864.02
2017-06-16T02:09:48.293Z,100865.30
2017-06-16T02:12:14.655Z,100854.52
2017-06-16T02:14:40.976Z,100869.80
2017-06-16T02:17:07.304Z,100866.78
2017-06-16T02:19:33.740Z,100873.70
2017-06-16T02:22:00.064Z,100870.81
2017-06-16T02:24:26.897Z,100871.55
2017-06-16T02:26:53.226Z,100879.29
2017-06-16T02:29:19.768Z,100879.06
2017-06-16T02:31:46.231Z,100873.09
2017-06-16T02:34:12.541Z,100871.81
2017-06-16T02:36:38.870Z,100874.83
2017-06-16T02:39:05.202Z,100874.48
2017-06-16T02:41:31.608Z,100876.02
2017-06-16T02:43:57.950Z,100885.60
2017-06-16T02:46:25.117Z,100877.94
2017-06-16T02:48:51.441Z,100869.98
2017-06-16T02:51:17.769Z,100878.63
2017-06-16T02:53:44.068Z,100880.45
2017-06-16T02:56:10.440Z,100877.30
2017-06-16T02:58:36.790Z,100882.58
2017-06-16T03:01:03.092Z,100884.33
2017-06-16T03:03:29.415Z,100883.19
2017-06-16T03:05:55.707Z,100878.99
2017-06-16T03:08:22.068Z,100882.95
2017-06-16T03:10:48.415Z,100885.23
2017-06-16T03:15:41.479Z,100890.61
2017-06-16T03:18:07.808Z,100894.28
2017-06-16T03:20:34.180Z,100895.20
2017-06-16T03:23:01.282Z,100900.65
2017-06-16T03:25:27.592Z,100903.41
2017-06-16T03:27:53.897Z,100906.12
2017-06-16T03:30:20.231Z,100911.13
2017-06-16T03:32:46.543Z,100913.12
2017-06-16T03:35:12.876Z,100917.33
2017-06-16T03:37:39.199Z,100924.92
2017-06-16T03:40:05.549Z,100921.16
2017-06-16T03:42:31.928Z,100929.23
2017-06-16T03:44:58.234Z,100932.18
2017-06-16T03:47:24.528Z,100933.27
2017-06-16T03:49:50.860Z,100939.63
2017-06-16T03:52:17.180Z,100942.08
2017-06-16T03:54:43.500Z,100941.28
2017-06-16T03:57:09.810Z,100934.72
2017-06-16T03:59:36.114Z,100943.43
2017-06-16T04:02:02.425Z,100943.15
2017-06-16T04:04:28.914Z,100941.72
2017-06-16T04:06:55.238Z,100945.45
2017-06-16T04:09:21.549Z,100950.54
2017-06-16T04:11:47.885Z,100951.20
2017-06-16T04:14:14.283Z,100951.97
2017-06-16T04:16:40.623Z,100959.12
2017-06-16T04:19:06.930Z,100950.77
2017-06-16T04:21:33.257Z,100955.47
2017-06-16T04:24:00.111Z,100959.37
2017-06-16T04:26:26.449Z,100955.09
2017-06-16T04:28:52.759Z,100959.40
2017-06-16T04:31:19.091Z,100964.75
2017-06-16T04:33:45.454Z,100966.81
2017-06-16T04:36:11.775Z,100961.05
2017-06-16T04:38:38.112Z,100957.05
2017-06-16T04:41:04.440Z,100954.41
2017-06-16T04:43:30.794Z,100958.27
2017-06-16T04:45:57.103Z,100963.80
2017-06-16T04:48:23.431Z,100958.83
2017-06-16T04:50:49.768Z,100965.87
2017-06-16T04:53:16.126Z,100971.98
2017-06-16T04:55:42.438Z,100973.16
2017-06-16T04:58:08.757Z,100983.53
2017-06-16T05:00:35.070Z,100978.23
2017-06-16T05:03:01.414Z,100990.13
2017-06-16T05:05:27.765Z,100989.06
2017-06-16T05:07:54.088Z,100990.37
2017-06-16T05:10:20.406Z,101001.00
2017-06-16T05:12:46.766Z,100998.59
2017-06-16T05:15:13.643Z,101008.01
2017-06-16T05:17:39.970Z,101010.86
2017-06-16T05:20:06.275Z,101012.82
2017-06-16T05:22:38.607Z,101000.16
2017-06-16T05:25:04.931Z,101002.90
2017-06-16T05:27:31.473Z,100999.20
2017-06-16T05:29:57.818Z,100992.52
2017-06-16T05:32:24.147Z,101001.31
2017-06-16T05:34:50.504Z,100992.53
2017-06-16T05:37:16.917Z,100996.95
2017-06-16T05:39:43.218Z,100997.95
2017-06-16T05:42:09.526Z,101000.16
2017-06-16T05:44:35.821Z,101005.77
2017-06-16T05:47:02.165Z,101006.36
2017-06-16T05:49:28.504Z,101004.59
2017-06-16T05:51:54.831Z,101013.30
2017-06-16T05:54:21.161Z,101016.11
2017-06-16T05:56:47.514Z,101017.84
2017-06-16T05:59:13.847Z,101022.06
2017-06-16T06:01:40.193Z,101026.78
2017-06-16T06:04:06.521Z,101029.27
2017-06-16T06:06:32.854Z,101029.28
2017-06-16T06:08:59.176Z,101040.45
2017-06-16T06:11:25.473Z,101035.14
2017-06-16T06:13:51.789Z,101029.93
2017-06-16T06:16:18.123Z,101036.52
2017-06-16T06:18:44.455Z,101038.34
2017-06-16T06:21:10.818Z,101045.59
2017-06-16T06:23:37.138Z,101048.23
2017-06-16T06:26:03.435Z,101052.28
2017-06-16T06:28:29.797Z,101058.30
2017-06-16T06:30:56.114Z,101059.05
2017-06-16T06:33:22.424Z,101053.13
2017-06-16T06:35:48.819Z,101062.46
2017-06-16T06:38:15.108Z,101064.24
2017-06-16T06:40:41.502Z,101062.25
2017-06-16T06:43:07.813Z,101062.60
2017-06-16T06:45:34.158Z,101067.56
2017-06-16T06:48:00.466Z,101076.02
2017-06-16T06:50:27.454Z,101080.09
2017-06-16T06:52:54.622Z,101089.80
2017-06-16T06:55:21.464Z,101086.58
2017-06-16T06:57:48.668Z,101089.94
2017-06-16T07:00:15.005Z,101091.16
2017-06-16T07:02:41.341Z,101083.59
2017-06-16T07:05:07.646Z,101083.95
2017-06-16T07:07:33.957Z,101093.39
2017-06-16T07:10:00.286Z,101094.39
2017-06-16T07:12:26.612Z,101099.16
2017-06-16T07:14:52.929Z,101099.67
2017-06-16T07:17:19.237Z,101097.64
2017-06-16T07:19:45.547Z,101099.14
2017-06-16T07:22:11.852Z,101103.99
2017-06-16T07:24:38.173Z,101099.62
2017-06-16T07:27:04.491Z,101098.84
2017-06-16T07:29:30.841Z,101102.20
2017-06-16T07:31:57.168Z,101106.70
2017-06-16T07:34:23.481Z,101111.46
2017-06-16T07:36:49.809Z,101109.21
2017-06-16T07:39:16.114Z,101105.74
2017-06-16T07:41:42.451Z,101108.23
2017-06-16T07:44:08.805Z,101114.91
2017-06-16T07:46:35.127Z,101110.09
2017-06-16T07:49:01.447Z,101116.35
2017-06-16T07:51:27.773Z,101116.28
2017-06-16T07:53:54.126Z,101122.36
2017-06-16T07:56:20.444Z,101124.04
2017-06-16T07:58:46.746Z,101129.11
2017-06-16T08:01:13.064Z,101125.93
2017-06-16T08:03:39.361Z,101128.22
2017-06-16T08:06:05.747Z,101129.71
2017-06-16T08:08:32.085Z,101147.29
2017-06-16T08:10:58.412Z,101145.78
2017-06-16T08:13:24.749Z,101143.80
2017-06-16T08:15:51.064Z,101138.11
2017-06-16T08:18:17.395Z,101141.13
2017-06-16T08:21:04.453Z,101139.16
2017-06-16T08:23:30.762Z,101134.22
2017-06-16T08:25:57.110Z,101140.02
2017-06-16T08:28:23.394Z,101130.30
2017-06-16T08:30:49.771Z,101134.61
2017-06-16T08:33:16.092Z,101137.12
2017-06-16T08:35:42.417Z,101141.20
2017-06-16T08:38:08.741Z,101141.58
2017-06-16T08:40:35.092Z,101147.16
2017-06-16T08:43:01.428Z,101152.16
2017-06-16T08:45:27.764Z,101154.03
2017-06-16T08:47:54.072Z,101159.02
2017-06-16T08:50:20.424Z,101160.95
2017-06-16T08:52:46.739Z,101163.73
2017-06-16T08:55:13.111Z,101165.56
2017-06-16T08:57:39.385Z,101165.91
2017-06-16T09:00:05.694Z,101171.92
2017-06-16T09:02:32.012Z,101172.45
2017-06-16T09:04:58.361Z,101177.62
2017-06-16T09:07:24.650Z,101182.52
2017-06-16T09:09:50.982Z,101174.69
2017-06-16T09:12:17.319Z,101187.70
2017-06-16T09:14:43.704Z,101188.89
2017-06-16T09:17:10.006Z,101184.00
2017-06-16T09:19:36.335Z,101185.14
2017-06-16T09:22:02.638Z,101178.33
2017-06-16T09:24:28.984Z,101196.81
2017-06-16T09:26:55.297Z,101192.83
2017-06-16T09:29:21.622Z,101200.27
2017-06-16T09:31:47.921Z,101196.17
2017-06-16T09:34:14.299Z,101201.10
2017-06-16T09:36:40.610Z,101198.02
2017-06-16T09:39:06.957Z,101200.59
2017-06-16T09:41:33.292Z,101203.77
2017-06-16T09:43:59.626Z,101207.27
2017-06-16T09:46:25.989Z,101206.72
2017-06-16T09:48:52.325Z,101214.31
2017-06-16T09:51:18.649Z,101212.17
2017-06-16T09:53:45.024Z,101220.59
2017-06-16T09:56:11.344Z,101209.96
2017-06-16T09:58:37.655Z,101218.17
2017-06-16T10:01:03.976Z,101217.50
2017-06-16T10:03:30.360Z,101222.81
2017-06-16T10:05:56.686Z,101221.13
2017-06-16T10:08:22.989Z,101217.19
2017-06-16T10:10:49.307Z,101223.31
2017-06-16T10:13:15.627Z,101221.88
2017-06-16T10:15:41.945Z,101228.68
2017-06-16T10:18:08.276Z,101238.94
2017-06-16T10:20:34.629Z,101241.84
2017-06-16T10:23:00.963Z,101260.66
2017-06-16T10:25:27.287Z,101254.49
2017-06-16T10:27:53.835Z,101267.92
2017-06-16T10:30:20.157Z,101261.03
2017-06-16T10:32:46.505Z,101265.62
2017-06-16T10:35:12.825Z,101264.73
2017-06-16T10:37:39.165Z,101268.22
2017-06-16T10:40:05.580Z,101272.52
2017-06-16T10:42:31.906Z,101262.42
2017-06-16T10:44:58.218Z,101264.36
2017-06-16T10:47:24.552Z,101268.52
2017-06-16T10:49:50.922Z,101272.06
2017-06-16T10:52:17.224Z,101273.16
2017-06-16T10:54:43.547Z,101284.80
2017-06-16T10:57:09.882Z,101285.89
2017-06-16T10:59:36.286Z,101292.30
2017-06-16T11:02:02.632Z,101286.05
2017-06-16T11:04:28.938Z,101279.77
2017-06-16T11:06:55.520Z,101272.95
2017-06-16T11:09:21.834Z,101276.58
2017-06-16T11:11:48.163Z,101274.13
2017-06-16T11:14:14.490Z,101278.34
2017-06-16T11:16:40.798Z,101277.77
2017-06-16T11:19:07.133Z,101277.52
2017-06-16T11:21:33.461Z,101286.15
2017-06-16T11:23:59.797Z,101290.59
2017-06-16T11:26:26.124Z,101303.44
2017-06-16T11:28:52.478Z,101303.30
2017-06-16T11:31:19.594Z,101304.16
2017-06-16T11:33:45.890Z,101298.77
2017-06-16T11:36:12.221Z,101300.52
2017-06-16T11:38:38.521Z,101300.67
2017-06-16T11:41:04.861Z,101291.35
2017-06-16T11:43:31.193Z,101291.04
2017-06-16T11:45:57.517Z,101294.95
2017-06-16T11:48:23.867Z,101300.70
2017-06-16T11:50:50.246Z,101291.09
2017-06-16T11:53:16.669Z,101294.13
2017-06-16T11:55:43.050Z,101288.82
2017-06-16T11:58:09.376Z,101300.64
2017-06-16T12:00:35.750Z,101297.39
2017-06-16T12:03:02.061Z,101301.52
2017-06-16T12:05:28.389Z,101306.70
2017-06-16T12:07:54.731Z,101305.30
2017-06-16T12:10:21.056Z,101313.80
2017-06-16T12:12:47.395Z,101316.72
2017-06-16T12:15:13.718Z,101313.70
2017-06-16T12:17:40.058Z,101309.59
2017-06-16T12:20:06.390Z,101311.45
2017-06-16T12:22:32.718Z,101301.74
2017-06-16T12:24:59.053Z,101300.17
2017-06-16T12:27:25.378Z,101304.16
2017-06-16T12:29:51.738Z,101306.75
2017-06-16T12:32:18.086Z,101311.91
2017-06-16T12:34:44.404Z,101313.65
2017-06-16T12:37:10.732Z,101317.45
2017-06-16T12:39:37.047Z,101299.34
2017-06-16T12:42:03.363Z,101307.30
2017-06-16T12:44:29.657Z,101306.34
2017-06-16T12:46:55.972Z,101313.97
2017-06-16T12:49:22.302Z,101315.63
2017-06-16T12:51:48.694Z,101321.07
2017-06-16T12:54:15.013Z,101315.98
2017-06-16T12:56:41.336Z,101322.59
2017-06-16T12:59:07.635Z,101317.11
2017-06-16T13:01:33.982Z,101323.09
2017-06-16T13:04:00.333Z,101309.84
2017-06-16T13:06:26.677Z,101321.16
2017-06-16T13:08:53.013Z,101322.16
2017-06-16T13:11:19.409Z,101322.70
2017-06-16T13:13:45.742Z,101326.82
2017-06-16T13:16:12.046Z,101323.36
2017-06-16T13:18:38.360Z,101333.11
2017-06-16T13:21:04.705Z,101333.39
2017-06-16T13:23:31.040Z,101337.42
2017-06-16T13:25:57.373Z,101329.23
2017-06-16T13:28:23.677Z,101329.34
2017-06-16T13:30:50.042Z,101322.16
2017-06-16T13:33:16.351Z,101316.16
2017-06-16T13:35:42.690Z,101323.16
2017-06-16T13:38:09.017Z,101337.30
2017-06-16T13:40:35.413Z,101333.38
2017-06-16T13:43:01.748Z,101337.88
2017-06-16T13:45:28.083Z,101351.28
2017-06-16T13:47:54.417Z,101352.23
2017-06-16T13:50:20.767Z,101349.51
2017-06-16T13:52:47.089Z,101351.70
2017-06-16T13:55:13.398Z,101362.23
2017-06-16T13:57:39.760Z,101352.30
2017-06-16T14:00:06.107Z,101355.97
2017-06-16T14:02:32.445Z,101362.25
2017-06-16T14:04:58.804Z,101361.38
2017-06-16T14:07:25.120Z,101356.19
2017-06-16T14:09:51.476Z,101363.20
2017-06-16T14:12:17.776Z,101366.61
2017-06-16T14:14:44.077Z,101362.63
2017-06-16T14:17:10.384Z,101369.86
2017-06-16T14:19:36.755Z,101372.23
2017-06-16T14:22:03.066Z,101372.13
2017-06-16T14:24:29.383Z,101375.91
2017-06-16T14:26:55.691Z,101380.14
2017-06-16T14:29:22.023Z,101383.32
2017-06-16T14:31:48.360Z,101378.70
2017-06-16T14:34:14.725Z,101384.16
2017-06-16T14:36:41.093Z,101386.78
2017-06-16T14:39:07.441Z,101382.35
2017-06-16T14:41:33.768Z,101390.75
2017-06-16T14:44:00.073Z,101394.88
2017-06-16T14:46:26.391Z,101395.23
2017-06-16T14:48:52.739Z,101403.64
2017-06-16T14:51:19.084Z,101399.40
2017-06-16T14:53:45.462Z,101401.67
2017-06-16T14:56:11.781Z,101411.68
2017-06-16T14:58:38.633Z,101411.62
2017-06-16T15:01:05.008Z,101419.20
2017-06-16T15:03:31.863Z,101419.56
2017-06-16T15:06:01.063Z,101428.64
2017-06-16T15:08:27.436Z,101416.18
2017-06-16T15:10:53.788Z,101423.59
2017-06-16T15:13:20.110Z,101422.48
2017-06-16T15:15:46.712Z,101438.23
2017-06-16T15:18:13.185Z,101432.28
2017-06-16T15:20:39.580Z,101432.91
2017-06-16T15:23:06.402Z,101434.77
2017-06-16T15:25:33.180Z,101438.97
2017-06-16T15:27:59.519Z,101436.59
2017-06-16T15:30:25.836Z,101436.52
2017-06-16T15:32:52.173Z,101441.70
2017-06-16T15:35:18.544Z,101446.34
2017-06-16T15:37:44.846Z,101440.06
2017-06-16T15:40:11.188Z,101440.84
2017-06-16T15:42:37.506Z,101436.06
2017-06-16T15:45:03.818Z,101436.41
2017-06-16T15:47:30.565Z,101445.70
2017-06-16T15:49:56.989Z,101450.45
2017-06-16T15:52:23.935Z,101445.55
2017-06-16T15:54:50.878Z,101454.00
2017-06-16T15:57:17.236Z,101455.03
2017-06-16T15:59:43.593Z,101460.05
2017-06-16T16:02:09.935Z,101474.77
2017-06-16T16:04:36.303Z,101467.02
2017-06-16T16:07:02.671Z,101472.78
2017-06-16T16:09:29.036Z,101479.15
2017-06-16T16:11:55.388Z,101486.24
2017-06-16T16:14:21.718Z,101493.77
2017-06-16T16:16:48.054Z,101489.92
2017-06-16T16:19:14.361Z,101484.41
2017-06-16T16:21:40.719Z,101485.57
2017-06-16T16:24:07.622Z,101484.09
2017-06-16T16:26:33.939Z,101482.08
2017-06-16T16:29:00.555Z,101484.30
2017-06-16T16:31:26.933Z,101493.28
2017-06-16T16:33:53.333Z,101502.65
2017-06-16T16:36:20.079Z,101503.16
2017-06-16T16:38:46.587Z,101495.08
2017-06-16T16:41:12.900Z,101500.45
2017-06-16T16:43:39.249Z,101493.88
2017-06-16T16:46:05.570Z,101497.80
2017-06-16T16:48:33.747Z,101498.41
2017-06-16T16:51:11.437Z,101508.23
2017-06-16T16:53:43.866Z,101508.02
2017-06-16T16:56:10.229Z,101507.38
2017-06-16T16:58:37.968Z,101511.03
2017-06-16T17:01:04.362Z,101523.42
2017-06-16T17:03:30.768Z,101515.42
2017-06-16T17:05:57.112Z,101519.77
2017-06-16T17:08:25.344Z,101525.61
2017-06-16T17:10:51.820Z,101522.44
2017-06-16T17:13:24.950Z,101518.70
2017-06-16T17:15:51.466Z,101529.59
2017-06-16T17:18:17.824Z,101523.70
2017-06-16T17:20:44.174Z,101533.23
2017-06-16T17:23:10.490Z,101530.94
2017-06-16T17:25:36.838Z,101531.54
2017-06-16T17:28:03.170Z,101534.59
2017-06-16T17:30:29.524Z,101535.45
2017-06-16T17:32:55.879Z,101536.95
2017-06-16T17:35:22.328Z,101539.28
2017-06-16T17:37:48.645Z,101537.98
2017-06-16T17:40:16.440Z,101546.13
2017-06-16T17:42:43.409Z,101541.50
2017-06-16T17:45:09.856Z,101543.53
2017-06-16T17:47:36.291Z,101547.38
2017-06-16T17:50:02.831Z,101547.92
2017-06-16T17:52:29.530Z,101554.92
2017-06-16T17:54:55.941Z,101553.14
2017-06-16T17:57:22.444Z,101560.30
2017-06-16T17:59:49.983Z,101546.42
2017-06-16T18:02:19.351Z,101557.03
2017-06-16T18:04:45.693Z,101558.41
2017-06-16T18:07:12.041Z,101559.30
2017-06-16T18:09:38.472Z,101559.91
2017-06-16T18:12:04.820Z,101561.23
2017-06-16T18:14:31.166Z,101574.11
2017-06-16T18:16:57.922Z,101565.70
2017-06-16T18:19:24.264Z,101563.42
2017-06-16T18:21:50.594Z,101567.41
2017-06-16T18:24:16.977Z,101558.22
2017-06-16T18:26:43.801Z,101574.83
2017-06-16T18:29:11.377Z,101565.60
2017-06-16T18:31:37.805Z,101570.27
2017-06-16T18:34:04.149Z,101571.91
2017-06-16T18:36:30.476Z,101580.61
2017-06-16T18:38:57.084Z,101584.96
2017-06-16T18:41:23.673Z,101584.98
2017-06-16T18:43:50.001Z,101580.59
2017-06-16T18:46:16.381Z,101585.63
2017-06-16T18:48:43.291Z,101591.69
2017-06-16T18:51:22.628Z,101592.72
2017-06-16T18:53:55.920Z,101594.02
2017-06-16T18:56:27.121Z,101589.30
2017-06-16T18:59:07.655Z,101599.05
2017-06-16T19:01:33.998Z,101594.38
2017-06-16T19:04:00.386Z,101600.27
2017-06-16T19:06:26.775Z,101596.11
2017-06-16T19:08:53.150Z,101599.37
2017-06-16T19:11:19.571Z,101611.94
2017-06-16T19:13:45.922Z,101610.19
2017-06-16T19:16:12.287Z,101614.27
2017-06-16T19:18:38.634Z,101614.73
2017-06-16T19:21:05.009Z,101619.96
2017-06-16T19:23:31.350Z,101617.77
2017-06-16T19:25:57.698Z,101624.89
2017-06-16T19:28:24.078Z,101629.83
2017-06-16T19:30:50.451Z,101631.80
2017-06-16T19:33:17.341Z,101633.13
2017-06-16T19:35:43.699Z,101631.53
2017-06-16T19:38:10.023Z,101643.87
2017-06-16T19:40:36.485Z,101647.80
2017-06-16T19:43:02.810Z,101642.02
2017-06-16T19:45:29.184Z,101631.84
2017-06-16T19:47:55.533Z,101642.03
2017-06-16T19:50:21.857Z,101642.25
2017-06-16T19:52:48.283Z,101651.29
2017-06-16T19:55:14.633Z,101654.66
2017-06-16T19:57:41.270Z,101661.18
2017-06-16T20:00:07.667Z,101668.43
2017-06-16T20:02:34.041Z,101664.34
2017-06-16T20:05:00.438Z,101667.47
2017-06-16T20:07:26.875Z,101673.11
2017-06-16T20:09:53.628Z,101672.22
2017-06-16T20:12:20.122Z,101674.52
2017-06-16T20:14:46.618Z,101678.88
2017-06-16T20:17:12.959Z,101673.00
2017-06-16T20:19:39.332Z,101676.00
2017-06-16T20:22:05.678Z,101684.47
2017-06-16T20:24:34.790Z,101684.27
2017-06-16T20:27:01.172Z,101687.02
2017-06-16T20:29:27.552Z,101686.33
2017-06-16T20:31:53.961Z,101688.66
2017-06-16T20:34:20.304Z,101690.23
2017-06-16T20:36:46.803Z,101697.20
2017-06-16T20:39:13.302Z,101694.16
2017-06-16T20:41:39.810Z,101691.97
2017-06-16T20:44:06.186Z,101701.28
2017-06-16T20:46:32.662Z,101700.17
2017-06-16T20:48:59.049Z,101698.17
2017-06-16T20:51:25.758Z,101700.33
2017-06-16T20:56:44.950Z,101693.48
2017-06-16T20:59:11.335Z,101695.95
2017-06-16T21:01:37.786Z,101700.53
2017-06-16T21:04:04.139Z,101709.55
2017-06-16T21:42:07.833Z,101740.70
2017-06-16T21:44:34.366Z,101734.64
2017-06-16T21:47:01.132Z,101739.56
2017-06-16T21:49:45.483Z,101742.02
2017-06-16T22:00:54.354Z,101725.73
2017-06-16T22:03:20.742Z,101727.77
2017-06-16T22:05:47.172Z,101744.09
2017-06-16T22:08:13.531Z,101735.28
2017-06-16T22:10:39.875Z,101733.12
2017-06-16T22:13:06.443Z,101729.53
2017-06-16T22:18:11.768Z,101737.06
2017-06-16T22:20:38.942Z,101740.08
2017-06-16T22:28:59.671Z,101749.83
2017-06-16T22:31:31.361Z,101744.88
2017-06-16T22:34:02.521Z,101735.70
2017-06-16T22:36:29.070Z,101743.28
2017-06-16T22:39:10.125Z,101749.62
2017-06-16T22:41:37.139Z,101751.94
2017-06-16T22:44:03.558Z,101748.47
2017-06-16T22:46:30.577Z,101745.39
2017-06-16T22:48:57.281Z,101747.10
2017-06-16T22:51:24.082Z,101749.66
2017-06-16T22:53:50.495Z,101745.11
2017-06-16T22:56:17.622Z,101744.59
2017-06-16T23:24:44.667Z,101741.47
2017-06-16T23:27:11.039Z,101744.45
2017-06-16T23:29:48.959Z,101739.30
2017-06-16T23:32:15.549Z,101752.89
2017-06-16T23:34:41.919Z,101744.00
2017-06-16T23:37:25.081Z,101747.14
2017-06-16T23:40:07.871Z,101748.33
2017-06-16T23:42:48.110Z,101745.48
2017-06-16T23:45:26.198Z,101746.67
2017-06-16T23:48:03.843Z,101752.46
2017-06-16T23:50:32.069Z,101753.56
2017-06-16T23:53:12.094Z,101754.67
2017-06-16T23:55:51.265Z,101747.19
2017-06-16T23:58:17.695Z,101757.41
